Terminal Aerodrome Forecast
Issued by NWS

Home | Current Version | Previous Version | Text Only | Print | Product List | Glossary On
Versions: 1 2 3 4 5 6 7 8 9 10 11 12 13 14 15 16 17
000
FTUS46 KHNX 202320
TAFMCE
TAF
KMCE 202320Z 2100/2124 35007KT 5SM -RA OVC050
      TEMPO 2100/2104 2SM RA BR BKN030
     FM210900 32006KT P6SM VCSH BKN020 OVC050
     FM211400 32007KT P6SM BKN025
     FM211900 32007KT P6SM SCT030 BKN050=

USA.gov is the U.S. government's official web portal to all federal, state and local government web resources and services.